createdAt,value
2022-12-12T00:01:51.151Z,-5.02
2022-12-12T00:06:52.635Z,-5.02
2022-12-12T00:11:54.119Z,-5.00
2022-12-12T00:16:55.612Z,-4.98
2022-12-12T00:21:57.095Z,-4.91
2022-12-12T00:26:58.584Z,-4.87
2022-12-12T00:32:00.092Z,-4.96
2022-12-12T00:37:01.513Z,-4.95
2022-12-12T00:42:03.218Z,-4.82
2022-12-12T00:47:04.798Z,-4.84
2022-12-12T00:52:06.268Z,-4.59
2022-12-12T00:57:08.871Z,-4.61
2022-12-12T01:02:10.489Z,-4.54
2022-12-12T01:07:11.992Z,-4.48
2022-12-12T01:12:13.431Z,-4.50
2022-12-12T01:17:14.931Z,-4.48
2022-12-12T01:22:16.493Z,-4.45
2022-12-12T01:27:17.995Z,-4.49
2022-12-12T01:32:19.423Z,-4.41
2022-12-12T01:37:21.175Z,-4.45
2022-12-12T01:42:22.652Z,-4.28
2022-12-12T01:47:24.919Z,-4.30
2022-12-12T01:52:38.444Z,-4.30
2022-12-12T01:57:44.612Z,-4.27
2022-12-12T02:02:47.076Z,-4.23
2022-12-12T02:07:48.626Z,-4.32
2022-12-12T02:12:50.284Z,-4.47
2022-12-12T02:18:03.828Z,-4.50
2022-12-12T02:23:17.644Z,-4.61
2022-12-12T02:28:46.818Z,-4.72
2022-12-12T02:34:00.788Z,-4.66
2022-12-12T02:39:08.269Z,-4.75
2022-12-12T02:44:21.870Z,-4.81
2022-12-12T02:49:38.852Z,-4.80
2022-12-12T02:54:40.277Z,-4.82
2022-12-12T02:59:45.098Z,-4.82
2022-12-12T03:05:23.788Z,-4.71
2022-12-12T03:10:52.905Z,-4.80
2022-12-12T03:16:16.112Z,-4.84
2022-12-12T03:21:39.429Z,-4.75
2022-12-12T03:26:54.888Z,-4.76
2022-12-12T03:32:03.418Z,-4.86
2022-12-12T03:37:19.558Z,-4.89
2022-12-12T03:42:23.812Z,-4.90
2022-12-12T03:47:39.437Z,-4.85
2022-12-12T03:52:45.575Z,-4.87
2022-12-12T03:58:32.371Z,-4.80
2022-12-12T04:03:49.025Z,-4.84
2022-12-12T04:08:52.035Z,-4.77
2022-12-12T04:14:07.994Z,-4.80
2022-12-12T04:19:19.619Z,-4.91
2022-12-12T04:24:34.742Z,-4.95
2022-12-12T04:29:39.020Z,-4.92
2022-12-12T04:35:14.953Z,-4.86
2022-12-12T04:40:24.732Z,-4.84
2022-12-12T04:45:34.308Z,-4.87
2022-12-12T04:50:37.833Z,-4.99
2022-12-12T04:55:44.368Z,-5.05
2022-12-12T05:00:51.339Z,-4.96
2022-12-12T05:06:09.022Z,-4.92
2022-12-12T05:11:12.057Z,-4.96
2022-12-12T05:16:29.099Z,-5.07
2022-12-12T05:21:30.847Z,-5.00
2022-12-12T05:26:34.381Z,-5.04
2022-12-12T05:31:36.182Z,-4.92
2022-12-12T05:36:37.677Z,-4.91
2022-12-12T05:41:39.140Z,-4.98
2022-12-12T05:46:40.568Z,-5.03
2022-12-12T05:51:42.007Z,-5.00
2022-12-12T05:56:43.428Z,-4.97
2022-12-12T06:01:44.980Z,-4.98
2022-12-12T06:06:46.535Z,-4.96
2022-12-12T06:11:48.009Z,-4.99
2022-12-12T06:16:49.504Z,-5.02
2022-12-12T06:21:51.025Z,-4.97
2022-12-12T06:26:53.041Z,-4.94
2022-12-12T06:31:54.621Z,-4.85
2022-12-12T06:36:56.109Z,-4.85
2022-12-12T06:41:57.574Z,-4.76
2022-12-12T06:46:59.088Z,-4.73
2022-12-12T06:52:00.592Z,-4.73
2022-12-12T06:57:02.091Z,-4.73
2022-12-12T07:02:04.087Z,-4.81
2022-12-12T07:07:05.755Z,-4.86
2022-12-12T07:12:07.288Z,-4.80
2022-12-12T07:17:08.780Z,-4.71
2022-12-12T07:22:10.819Z,-4.71
2022-12-12T07:27:16.970Z,-4.65
2022-12-12T07:32:22.728Z,-4.66
2022-12-12T07:37:24.243Z,-4.69
2022-12-12T07:42:25.768Z,-4.66
2022-12-12T07:47:27.248Z,-4.54
2022-12-12T07:52:28.751Z,-4.44
2022-12-12T07:57:30.783Z,-4.43
2022-12-12T08:02:32.274Z,-4.38
2022-12-12T08:07:33.804Z,-4.44
2022-12-12T08:12:35.356Z,-4.38
2022-12-12T08:17:36.833Z,-4.25
2022-12-12T08:22:38.311Z,-4.20
2022-12-12T08:27:39.831Z,-4.15
2022-12-12T08:32:41.317Z,-4.15
2022-12-12T08:37:42.785Z,-4.01
2022-12-12T08:42:44.291Z,-3.93
2022-12-12T08:47:45.832Z,-3.87
2022-12-12T08:52:47.324Z,-3.83
2022-12-12T08:57:48.820Z,-3.82
2022-12-12T09:02:50.330Z,-3.76
2022-12-12T09:07:52.102Z,-3.71
2022-12-12T09:12:54.833Z,-3.58
2022-12-12T09:17:56.340Z,-3.60
2022-12-12T09:22:57.793Z,-3.53
2022-12-12T09:27:59.249Z,-3.36
2022-12-12T09:33:00.703Z,-3.30
2022-12-12T09:38:02.462Z,-3.26
2022-12-12T09:43:04.171Z,-3.16
2022-12-12T09:48:07.298Z,-3.03
2022-12-12T09:53:15.326Z,-3.06
2022-12-12T09:58:51.385Z,-3.00
2022-12-12T10:04:31.120Z,-3.05
2022-12-12T10:09:50.861Z,-2.87
2022-12-12T10:14:59.674Z,-2.80
2022-12-12T10:20:27.522Z,-2.87
2022-12-12T10:25:41.469Z,-2.78
2022-12-12T10:30:55.283Z,-2.63
2022-12-12T10:36:11.856Z,-2.54
2022-12-12T10:41:42.722Z,-2.31
2022-12-12T10:46:59.638Z,-2.09
2022-12-12T10:52:06.772Z,-2.01
2022-12-12T10:57:19.964Z,-1.98
2022-12-12T11:02:37.003Z,-1.84
2022-12-12T11:07:44.908Z,-1.78
2022-12-12T11:12:54.960Z,-1.77
2022-12-12T11:18:01.251Z,-1.70
2022-12-12T11:23:18.497Z,-1.63
2022-12-12T11:28:23.908Z,-1.66
2022-12-12T11:33:45.117Z,-1.59
2022-12-12T11:38:55.869Z,-1.53
2022-12-12T11:43:59.273Z,-1.40
2022-12-12T11:49:04.411Z,-1.19
2022-12-12T11:54:13.323Z,-0.71
2022-12-12T11:59:23.684Z,-0.21
2022-12-12T12:04:45.902Z,0.13
2022-12-12T12:09:57.154Z,0.33
2022-12-12T12:15:18.351Z,0.33
2022-12-12T12:20:31.177Z,0.32
2022-12-12T12:25:40.965Z,0.11
2022-12-12T12:31:04.984Z,0.15
2022-12-12T12:36:19.376Z,0.09
2022-12-12T12:41:33.984Z,0.61
2022-12-12T12:47:14.548Z,0.93
2022-12-12T12:52:38.783Z,1.34
2022-12-12T12:57:44.590Z,1.46
2022-12-12T13:02:50.214Z,1.38
2022-12-12T13:07:59.989Z,1.26
2022-12-12T13:13:06.332Z,1.04
2022-12-12T13:18:14.355Z,0.95
2022-12-12T13:23:38.092Z,0.74
2022-12-12T13:28:51.435Z,0.51
2022-12-12T13:34:04.906Z,0.33
2022-12-12T13:39:08.263Z,0.22
2022-12-12T13:44:33.996Z,0.20
2022-12-12T13:49:54.041Z,0.09
2022-12-12T13:55:15.405Z,0.12
2022-12-12T14:00:18.283Z,0.16
2022-12-12T14:05:24.222Z,0.19
2022-12-12T14:10:34.182Z,0.10
2022-12-12T14:15:36.205Z,0.12
2022-12-12T14:20:41.833Z,0.16
2022-12-12T14:25:43.367Z,0.17
2022-12-12T14:30:47.882Z,0.09
2022-12-12T14:36:04.506Z,0.02
2022-12-12T14:41:13.995Z,-0.20
2022-12-12T14:46:17.411Z,-0.26
2022-12-12T14:51:28.951Z,-0.19
2022-12-12T14:56:40.523Z,-0.20
2022-12-12T15:01:51.282Z,-0.25
2022-12-12T15:06:54.443Z,-0.36
2022-12-12T15:12:05.138Z,-0.58
2022-12-12T15:17:12.196Z,-0.57
2022-12-12T15:22:29.194Z,-0.72
2022-12-12T15:27:47.040Z,-0.92
2022-12-12T15:32:51.179Z,-1.15
2022-12-12T15:38:00.601Z,-1.47
2022-12-12T15:43:10.911Z,-1.61
2022-12-12T15:48:17.332Z,-1.73
2022-12-12T22:11:40.369Z,-4.32
2022-12-12T22:17:10.759Z,-4.50
2022-12-12T22:22:12.319Z,-4.57
2022-12-12T22:27:13.912Z,-4.59
2022-12-12T22:32:15.498Z,-4.59
2022-12-12T22:37:17.098Z,-4.54
2022-12-12T22:42:18.649Z,-4.49
2022-12-12T22:47:20.138Z,-4.44
2022-12-12T22:52:21.644Z,-4.49
2022-12-12T22:57:23.139Z,-4.55
2022-12-12T23:02:25.268Z,-4.61
2022-12-12T23:07:27.006Z,-4.69
2022-12-12T23:12:28.743Z,-4.56
2022-12-12T23:17:30.354Z,-4.56
2022-12-12T23:22:32.187Z,-4.55
2022-12-12T23:27:34.094Z,-4.53
2022-12-12T23:32:36.256Z,-4.48
2022-12-12T23:37:38.349Z,-4.40
2022-12-12T23:42:41.799Z,-4.42
2022-12-12T23:47:43.551Z,-4.43
2022-12-12T23:52:45.449Z,-4.45
2022-12-12T23:57:47.384Z,-4.55
